createdAt,value
2022-08-07T00:01:42.960Z,5.35
2022-08-07T00:03:51.331Z,4.72
2022-08-07T00:06:17.875Z,6.38
2022-08-07T00:08:55.952Z,5.18
2022-08-07T00:11:29.905Z,4.95
2022-08-07T00:13:59.942Z,3.72
2022-08-07T00:16:28.736Z,4.50
2022-08-07T00:18:55.352Z,4.32
2022-08-07T00:21:56.859Z,5.00
2022-08-07T00:24:09.185Z,4.10
2022-08-07T00:26:58.754Z,4.22
2022-08-07T00:29:23.298Z,4.47
2022-08-07T00:31:50.097Z,3.90
2022-08-07T00:34:18.077Z,3.78
2022-08-07T00:36:48.353Z,3.78
2022-08-07T00:39:17.007Z,4.60
2022-08-07T00:41:53.569Z,5.07
2022-08-07T00:44:28.597Z,4.18
2022-08-07T00:46:55.239Z,3.58
2022-08-07T00:50:17.130Z,3.63
2022-08-07T00:52:09.844Z,3.33
2022-08-07T00:57:07.871Z,2.97
2022-08-07T00:59:36.659Z,3.45
2022-08-07T01:02:13.942Z,3.33
2022-08-07T01:04:43.449Z,2.80
2022-08-07T01:07:12.609Z,3.80
2022-08-07T01:10:04.386Z,3.42
2022-08-07T01:12:30.068Z,2.85
2022-08-07T01:15:01.063Z,3.03
2022-08-07T01:17:30.202Z,3.67
2022-08-07T01:20:07.949Z,3.50
2022-08-07T01:22:37.036Z,3.20
2022-08-07T01:25:54.787Z,3.10
2022-08-07T01:28:02.521Z,3.20
2022-08-07T01:30:30.387Z,3.90
2022-08-07T01:32:58.335Z,4.28
2022-08-07T01:35:53.536Z,2.80
2022-08-07T01:38:14.251Z,3.35
2022-08-07T01:40:57.402Z,3.83
2022-08-07T01:43:26.156Z,2.50
2022-08-07T01:46:02.446Z,2.83
2022-08-07T01:52:00.999Z,2.35
2022-08-07T01:54:12.172Z,3.30
2022-08-07T01:56:51.759Z,3.30
2022-08-07T01:59:30.899Z,3.05
2022-08-07T02:02:07.185Z,2.67
2022-08-07T02:04:55.608Z,2.83
2022-08-07T02:07:44.969Z,2.55
2022-08-07T02:10:18.981Z,2.63
2022-08-07T02:12:50.031Z,3.13
2022-08-07T02:15:26.331Z,2.65
2022-08-07T02:17:56.510Z,2.10
2022-08-07T02:20:24.594Z,2.75
2022-08-07T02:22:59.602Z,2.50
2022-08-07T02:26:10.081Z,2.08
2022-08-07T02:28:25.607Z,1.98
2022-08-07T02:31:18.867Z,2.25
2022-08-07T02:34:03.242Z,1.75
2022-08-07T02:36:34.575Z,1.90
2022-08-07T02:39:16.747Z,2.33
2022-08-07T02:44:27.696Z,2.30
2022-08-07T02:47:05.176Z,1.85
2022-08-07T02:49:58.492Z,1.90
2022-08-07T02:52:33.906Z,2.17
2022-08-07T02:55:27.736Z,2.05
2022-08-07T02:57:56.762Z,1.65
2022-08-07T03:00:28.102Z,1.55
2022-08-07T03:02:58.244Z,1.75
2022-08-07T03:05:24.958Z,1.90
2022-08-07T03:08:07.438Z,2.08
2022-08-07T03:10:46.321Z,1.80
2022-08-07T03:13:19.798Z,1.60
2022-08-07T03:15:58.210Z,1.90
2022-08-07T03:18:34.679Z,1.77
2022-08-07T03:21:05.069Z,1.60
2022-08-07T03:24:19.283Z,2.35
2022-08-07T03:26:29.902Z,2.08
2022-08-07T03:29:00.510Z,1.90
2022-08-07T03:31:42.452Z,1.67
2022-08-07T03:34:18.905Z,1.88
2022-08-07T03:36:53.768Z,1.85
2022-08-07T03:39:46.276Z,1.60
2022-08-07T03:42:11.551Z,2.10
2022-08-07T03:44:40.871Z,1.38
2022-08-07T03:47:11.494Z,1.75
2022-08-07T03:49:52.392Z,1.67
2022-08-07T03:52:27.252Z,1.98
2022-08-07T03:55:06.452Z,1.73
2022-08-07T03:58:35.151Z,1.45
2022-08-07T04:00:29.147Z,2.10
2022-08-07T04:02:57.028Z,1.85
2022-08-07T04:05:40.769Z,2.33
2022-08-07T04:08:16.113Z,2.20
2022-08-07T04:10:54.290Z,1.98
2022-08-07T04:14:11.026Z,1.70
2022-08-07T04:16:31.454Z,1.80
2022-08-07T04:19:04.114Z,1.85
2022-08-07T04:21:39.693Z,1.95
2022-08-07T04:24:33.722Z,1.63
2022-08-07T04:27:05.117Z,1.92
2022-08-07T04:29:40.540Z,2.20
2022-08-07T04:32:34.051Z,2.35
2022-08-07T04:35:06.251Z,1.70
2022-08-07T04:38:00.855Z,1.90
2022-08-07T04:40:29.803Z,2.20
2022-08-07T04:43:01.633Z,2.80
2022-08-07T04:45:57.609Z,2.03
2022-08-07T04:48:40.180Z,1.88
2022-08-07T04:51:28.415Z,2.25
2022-08-07T04:54:30.288Z,2.10
2022-08-07T04:58:12.862Z,1.80
2022-08-07T05:00:17.311Z,1.85
2022-08-07T05:04:00.334Z,1.58
2022-08-07T05:06:28.295Z,1.30
2022-08-07T05:09:46.651Z,1.70
2022-08-07T05:12:26.764Z,1.58
2022-08-07T05:15:05.645Z,1.30
2022-08-07T05:17:52.391Z,1.83
2022-08-07T05:20:27.261Z,1.67
2022-08-07T05:23:01.974Z,1.55
2022-08-07T05:25:36.642Z,1.27
2022-08-07T05:28:23.302Z,1.60
2022-08-07T05:30:57.919Z,1.17
2022-08-07T05:33:28.839Z,1.25
2022-08-07T05:35:58.078Z,1.60
2022-08-07T05:39:01.498Z,1.60
2022-08-07T05:41:16.727Z,1.10
2022-08-07T05:44:12.698Z,1.25
2022-08-07T05:46:45.451Z,1.42
2022-08-07T05:51:50.824Z,1.00
2022-08-07T05:54:31.042Z,1.30
2022-08-07T05:57:09.453Z,1.00
2022-08-07T05:59:55.918Z,2.15
2022-08-07T06:02:29.572Z,1.13
2022-08-07T06:05:15.782Z,1.15
2022-08-07T06:08:13.204Z,1.38
2022-08-07T06:10:37.225Z,1.50
2022-08-07T06:13:05.751Z,1.17
2022-08-07T06:15:42.264Z,1.33
2022-08-07T06:18:13.911Z,1.27
2022-08-07T06:20:50.350Z,1.23
2022-08-07T06:24:37.748Z,1.30
2022-08-07T06:26:20.168Z,1.02
2022-08-07T06:28:52.804Z,1.50
2022-08-07T06:31:20.987Z,1.80
2022-08-07T06:33:51.862Z,1.35
2022-08-07T06:36:34.730Z,1.40
2022-08-07T06:40:13.167Z,1.17
2022-08-07T06:42:02.869Z,1.25
2022-08-07T06:45:01.830Z,1.30
2022-08-07T06:47:28.742Z,1.63
2022-08-07T06:50:16.293Z,1.42
2022-08-07T06:52:53.179Z,1.48
2022-08-07T06:55:32.878Z,1.15
2022-08-07T06:58:14.414Z,1.30
2022-08-07T07:00:53.739Z,1.60
2022-08-07T07:03:39.699Z,1.60
2022-08-07T07:06:11.267Z,1.30
2022-08-07T07:12:09.902Z,1.52
2022-08-07T07:14:02.451Z,1.20
2022-08-07T07:16:39.166Z,1.60
2022-08-07T07:19:55.071Z,1.40
2022-08-07T07:22:32.328Z,1.30
2022-08-07T07:25:14.491Z,1.40
2022-08-07T07:28:02.403Z,1.40
2022-08-07T07:30:38.393Z,1.77
2022-08-07T07:33:09.044Z,1.40
2022-08-07T07:35:44.026Z,1.55
2022-08-07T07:38:28.842Z,1.63
2022-08-07T07:41:02.174Z,1.50
2022-08-07T07:43:47.907Z,1.42
2022-08-07T07:46:37.765Z,0.88
2022-08-07T07:49:09.155Z,1.50
2022-08-07T07:51:58.112Z,1.40
2022-08-07T07:54:26.679Z,1.00
2022-08-07T07:56:55.115Z,1.10
2022-08-07T07:59:52.828Z,1.45
2022-08-07T08:02:34.149Z,1.48
2022-08-07T08:05:14.132Z,1.67
2022-08-07T08:07:59.726Z,1.08
2022-08-07T08:10:35.622Z,1.08
2022-08-07T08:13:10.582Z,1.17
2022-08-07T08:15:58.360Z,1.13
2022-08-07T08:18:28.962Z,1.10
2022-08-07T08:20:59.713Z,1.45
2022-08-07T08:23:30.190Z,1.80
2022-08-07T08:26:06.933Z,1.45
2022-08-07T08:28:39.223Z,1.67
2022-08-07T08:31:58.354Z,1.52
2022-08-07T08:34:12.397Z,1.85
2022-08-07T08:36:56.248Z,1.40
2022-08-07T08:39:39.611Z,1.88
2022-08-07T08:42:32.042Z,1.25
2022-08-07T08:45:21.292Z,1.55
2022-08-07T08:48:16.940Z,1.10
2022-08-07T08:51:03.379Z,1.67
2022-08-07T08:53:57.437Z,1.45
2022-08-07T08:56:48.751Z,1.30
2022-08-07T08:59:41.723Z,1.33
2022-08-07T09:02:37.644Z,1.00
2022-08-07T09:05:15.207Z,1.25
2022-08-07T09:07:58.287Z,1.42
2022-08-07T09:10:44.108Z,1.20
2022-08-07T09:13:17.048Z,1.77
2022-08-07T09:16:21.525Z,1.77
2022-08-07T09:19:51.836Z,1.42
2022-08-07T09:24:31.902Z,1.48
2022-08-07T09:26:01.816Z,2.20
2022-08-07T09:30:01.792Z,2.25
2022-08-07T09:31:50.613Z,1.65
2022-08-07T09:34:36.149Z,2.45
2022-08-07T09:37:20.421Z,1.40
2022-08-07T09:40:17.860Z,1.40
2022-08-07T09:43:08.255Z,1.80
2022-08-07T09:47:24.494Z,1.13
2022-08-07T09:48:56.033Z,1.88
2022-08-07T09:52:16.435Z,1.40
2022-08-07T09:55:29.384Z,1.27
2022-08-07T09:58:51.402Z,1.40
2022-08-07T10:01:50.389Z,1.38
2022-08-07T10:05:13.910Z,1.40
2022-08-07T10:07:55.678Z,1.20
2022-08-07T10:10:43.641Z,1.27
2022-08-07T10:14:00.612Z,1.45
2022-08-07T10:16:46.927Z,1.27
2022-08-07T10:19:47.075Z,1.40
2022-08-07T10:22:50.984Z,1.20
2022-08-07T10:25:42.595Z,1.45
2022-08-07T10:28:34.439Z,1.35
2022-08-07T10:31:38.753Z,1.83
2022-08-07T10:34:38.949Z,1.38
2022-08-07T10:38:00.597Z,1.70
2022-08-07T10:40:33.495Z,1.40
2022-08-07T10:43:29.890Z,1.38
2022-08-07T10:46:09.224Z,1.73
2022-08-07T10:49:02.369Z,1.48
2022-08-07T10:51:57.743Z,1.40
2022-08-07T10:54:41.334Z,2.72
2022-08-07T10:57:45.925Z,1.90
2022-08-07T11:00:39.566Z,1.00
2022-08-07T11:03:23.492Z,1.20
2022-08-07T11:06:22.018Z,1.58
2022-08-07T11:08:56.409Z,1.30
2022-08-07T11:11:39.661Z,1.65
2022-08-07T11:14:43.772Z,1.27
2022-08-07T11:17:23.304Z,1.33
2022-08-07T11:20:43.108Z,1.63
2022-08-07T11:23:36.375Z,1.55
2022-08-07T11:26:25.117Z,1.10
2022-08-07T11:29:01.712Z,1.33
2022-08-07T11:31:41.691Z,1.42
2022-08-07T11:34:29.638Z,2.72
2022-08-07T11:37:11.772Z,4.50
2022-08-07T11:40:00.427Z,1.42
2022-08-07T11:42:49.587Z,1.70
2022-08-07T11:45:35.522Z,1.20
2022-08-07T11:48:30.196Z,1.25
2022-08-07T11:51:35.082Z,1.73
2022-08-07T11:54:30.948Z,1.38
2022-08-07T11:57:52.365Z,1.83
2022-08-07T12:00:19.263Z,1.25
2022-08-07T12:02:53.539Z,1.50
2022-08-07T12:05:49.059Z,1.10
2022-08-07T12:08:25.961Z,1.38
2022-08-07T12:11:21.323Z,1.10
2022-08-07T12:13:58.081Z,1.92
2022-08-07T12:16:32.811Z,1.70
2022-08-07T12:19:22.105Z,2.08
2022-08-07T12:22:37.604Z,1.67
2022-08-07T12:26:22.201Z,1.30
2022-08-07T12:28:31.222Z,1.05
2022-08-07T12:31:05.577Z,1.20
2022-08-07T12:36:32.901Z,1.30
2022-08-07T12:39:42.916Z,1.10
2022-08-07T12:41:54.503Z,1.90
2022-08-07T12:44:24.522Z,1.58
2022-08-07T12:47:14.315Z,1.35
2022-08-07T12:50:39.172Z,1.23
2022-08-07T12:53:22.424Z,3.03
2022-08-07T12:56:03.954Z,1.90
2022-08-07T12:58:37.382Z,1.27
2022-08-07T13:01:06.012Z,1.05
2022-08-07T13:04:09.794Z,1.48
2022-08-07T13:08:11.601Z,2.00
2022-08-07T13:10:28.361Z,1.30
2022-08-07T13:13:47.883Z,1.20
2022-08-07T13:16:21.713Z,1.65
2022-08-07T13:19:34.817Z,1.13
2022-08-07T13:24:56.340Z,1.02
2022-08-07T13:28:11.560Z,1.25
2022-08-07T13:30:40.837Z,0.95
2022-08-07T13:34:33.415Z,1.40
2022-08-07T13:36:25.700Z,2.40
2022-08-07T13:39:49.402Z,1.60
2022-08-07T13:42:11.012Z,1.30
2022-08-07T13:44:39.578Z,1.20
2022-08-07T13:47:15.758Z,1.33
2022-08-07T13:50:34.440Z,1.30
2022-08-07T13:52:43.210Z,1.15
2022-08-07T13:55:19.666Z,1.70
2022-08-07T13:58:04.459Z,3.80
2022-08-07T14:00:50.526Z,1.20
2022-08-07T14:03:41.250Z,1.40
2022-08-07T14:06:12.829Z,1.10
2022-08-07T14:08:43.659Z,1.13
2022-08-07T14:11:18.925Z,1.08
2022-08-07T14:13:52.437Z,1.40
2022-08-07T14:16:31.316Z,1.35
2022-08-07T14:19:01.654Z,1.40
2022-08-07T14:22:03.261Z,2.75
2022-08-07T14:24:37.456Z,1.20
2022-08-07T14:28:09.372Z,1.52
2022-08-07T14:30:11.212Z,1.42
2022-08-07T14:32:56.901Z,1.35
2022-08-07T14:35:43.071Z,1.85
2022-08-07T14:38:30.195Z,1.75
2022-08-07T14:41:05.610Z,1.42
2022-08-07T14:46:33.168Z,2.33
2022-08-07T14:52:04.226Z,1.80
2022-08-07T14:54:41.693Z,1.48
2022-08-07T14:57:15.059Z,1.52
2022-08-07T15:05:23.457Z,1.83
2022-08-07T15:07:52.718Z,1.50
2022-08-07T15:13:19.810Z,1.63
2022-08-07T15:15:52.528Z,1.55
2022-08-07T15:18:34.824Z,2.10
2022-08-07T15:21:44.429Z,2.55
2022-08-07T15:25:12.892Z,2.47
2022-08-07T15:27:08.398Z,2.13
2022-08-07T15:30:04.879Z,2.00
2022-08-07T15:32:40.094Z,1.67
2022-08-07T15:36:00.356Z,1.83
2022-08-07T15:38:17.642Z,3.10
2022-08-07T15:44:03.242Z,1.65
2022-08-07T15:46:38.531Z,1.50
2022-08-07T15:49:19.048Z,1.80
2022-08-07T15:54:27.272Z,1.45
2022-08-07T15:56:59.833Z,1.50
2022-08-07T15:59:39.076Z,1.70
2022-08-07T16:02:08.507Z,1.58
2022-08-07T16:04:37.858Z,1.40
2022-08-07T16:08:33.089Z,1.55
2022-08-07T16:10:00.321Z,1.73
2022-08-07T16:13:01.142Z,1.58
2022-08-07T16:15:57.345Z,2.17
2022-08-07T16:18:50.476Z,1.23
2022-08-07T16:22:04.112Z,1.30
2022-08-07T16:24:52.639Z,1.63
2022-08-07T16:27:46.607Z,1.40
2022-08-07T16:30:31.136Z,1.90
2022-08-07T16:34:01.771Z,1.35
2022-08-07T16:37:02.096Z,1.45
2022-08-07T16:40:03.015Z,1.70
2022-08-07T16:43:01.534Z,1.50
2022-08-07T16:46:20.949Z,1.52
2022-08-07T16:50:20.822Z,1.30
2022-08-07T16:52:51.685Z,1.35
2022-08-07T16:55:29.090Z,1.63
2022-08-07T16:59:15.240Z,1.27
2022-08-07T17:01:41.630Z,1.58
2022-08-07T17:04:24.766Z,1.50
2022-08-07T17:07:10.421Z,1.70
2022-08-07T17:10:07.353Z,1.63
2022-08-07T17:12:54.856Z,2.13
2022-08-07T17:15:43.851Z,1.63
2022-08-07T17:18:46.252Z,1.50
2022-08-07T17:21:22.489Z,1.50
2022-08-07T17:23:49.805Z,1.50
2022-08-07T17:26:30.747Z,1.75
2022-08-07T17:30:13.890Z,1.20
2022-08-07T17:32:30.618Z,1.30
2022-08-07T17:35:49.578Z,1.48
2022-08-07T17:38:32.090Z,1.58
2022-08-07T17:42:03.097Z,1.50
2022-08-07T17:44:33.838Z,1.20
2022-08-07T17:47:41.960Z,1.33
2022-08-07T17:50:36.406Z,1.20
2022-08-07T17:53:59.998Z,1.38
2022-08-07T17:56:57.586Z,1.52
2022-08-07T17:59:43.480Z,1.33
2022-08-07T18:02:31.640Z,1.35
2022-08-07T18:05:25.890Z,1.65
2022-08-07T18:08:32.690Z,1.45
2022-08-07T18:12:16.663Z,1.70
2022-08-07T18:14:16.507Z,1.52
2022-08-07T18:16:59.663Z,1.58
2022-08-07T18:21:10.479Z,1.55
2022-08-07T18:22:36.930Z,1.42
2022-08-07T18:25:19.309Z,1.50
2022-08-07T18:27:53.940Z,1.40
2022-08-07T18:30:36.790Z,1.10
2022-08-07T18:33:55.382Z,1.60
2022-08-07T18:36:39.290Z,1.30
2022-08-07T18:40:07.921Z,1.70
2022-08-07T18:42:28.614Z,1.15
2022-08-07T18:45:39.905Z,1.88
2022-08-07T18:50:05.016Z,2.00
2022-08-07T18:52:35.222Z,1.40
2022-08-07T18:54:41.407Z,1.10
2022-08-07T18:57:42.560Z,1.58
2022-08-07T19:00:42.317Z,1.42
2022-08-07T19:03:38.072Z,1.20
2022-08-07T19:06:16.502Z,1.65
2022-08-07T19:08:55.502Z,1.50
2022-08-07T19:11:39.900Z,1.67
2022-08-07T19:15:03.840Z,1.60
2022-08-07T19:18:11.606Z,1.83
2022-08-07T19:21:09.158Z,2.08
2022-08-07T19:23:58.961Z,1.30
2022-08-07T19:26:43.453Z,1.80
2022-08-07T19:30:58.781Z,1.65
2022-08-07T19:32:18.046Z,2.00
2022-08-07T19:35:13.513Z,1.80
2022-08-07T19:37:57.151Z,1.95
2022-08-07T19:40:31.423Z,1.40
2022-08-07T19:43:21.832Z,1.80
2022-08-07T19:46:08.026Z,2.20
2022-08-07T19:48:53.636Z,1.70
2022-08-07T19:51:50.551Z,1.63
2022-08-07T19:54:34.783Z,1.67
2022-08-07T19:58:04.126Z,1.35
2022-08-07T19:59:53.511Z,1.70
2022-08-07T20:02:56.414Z,1.60
2022-08-07T20:05:28.175Z,1.90
2022-08-07T20:08:02.093Z,1.70
2022-08-07T20:10:36.106Z,1.80
2022-08-07T20:13:26.910Z,1.98
2022-08-07T20:16:01.000Z,1.70
2022-08-07T20:18:33.024Z,1.42
2022-08-07T20:21:03.812Z,2.17
2022-08-07T20:23:53.486Z,1.75
2022-08-07T20:26:32.212Z,1.60
2022-08-07T20:29:00.747Z,2.22
2022-08-07T20:31:41.887Z,1.77
2022-08-07T20:34:09.823Z,2.15
2022-08-07T20:36:39.564Z,2.03
2022-08-07T20:39:30.456Z,2.10
2022-08-07T20:41:54.766Z,2.00
2022-08-07T20:44:29.839Z,1.98
2022-08-07T20:47:05.858Z,1.95
2022-08-07T20:50:00.919Z,1.95
2022-08-07T20:52:51.795Z,2.38
2022-08-07T20:55:17.235Z,1.65
2022-08-07T20:58:03.567Z,2.55
2022-08-07T21:00:42.638Z,1.60
2022-08-07T21:03:14.127Z,1.83
2022-08-07T21:05:54.502Z,1.90
2022-08-07T21:08:38.015Z,1.73
2022-08-07T21:11:10.863Z,1.90
2022-08-07T21:14:16.339Z,1.98
2022-08-07T21:16:37.798Z,2.05
2022-08-07T21:19:51.743Z,2.17
2022-08-07T21:22:19.948Z,1.98
2022-08-07T21:24:48.068Z,1.75
2022-08-07T21:27:39.610Z,2.25
2022-08-07T21:33:11.819Z,1.52
2022-08-07T21:36:06.538Z,1.92
2022-08-07T21:38:50.064Z,1.67
2022-08-07T21:41:38.322Z,1.58
2022-08-07T21:44:30.146Z,1.80
2022-08-07T21:47:17.182Z,1.90
2022-08-07T21:50:02.195Z,1.60
2022-08-07T21:52:48.083Z,1.98
2022-08-07T21:55:29.932Z,1.60
2022-08-07T21:58:32.213Z,1.65
2022-08-07T22:01:13.643Z,2.05
2022-08-07T22:03:58.844Z,1.80
2022-08-07T22:06:52.599Z,2.05
2022-08-07T22:09:20.933Z,1.60
2022-08-07T22:12:05.765Z,2.20
2022-08-07T22:15:00.079Z,1.90
2022-08-07T22:17:36.042Z,1.85
2022-08-07T22:20:23.737Z,2.10
2022-08-07T22:25:58.943Z,1.67
2022-08-07T22:28:48.359Z,1.73
2022-08-07T22:31:56.435Z,1.83
2022-08-07T22:34:35.597Z,2.22
2022-08-07T22:38:01.930Z,1.80
2022-08-07T22:40:29.687Z,1.63
2022-08-07T22:43:03.015Z,1.95
2022-08-07T22:46:21.902Z,2.08
2022-08-07T22:49:09.687Z,1.77
2022-08-07T22:52:12.129Z,1.88
2022-08-07T22:55:17.276Z,1.63
2022-08-07T22:58:16.735Z,1.75
2022-08-07T23:01:13.026Z,1.75
2022-08-07T23:03:57.994Z,1.80
2022-08-07T23:06:53.943Z,1.67
2022-08-07T23:10:04.947Z,1.92
2022-08-07T23:12:42.573Z,2.05
2022-08-07T23:15:22.058Z,2.35
2022-08-07T23:18:23.729Z,1.83
2022-08-07T23:21:09.450Z,1.92
2022-08-07T23:24:04.178Z,2.08
2022-08-07T23:26:55.109Z,2.08
2022-08-07T23:30:38.666Z,2.03
2022-08-07T23:34:22.103Z,1.50
2022-08-07T23:35:43.419Z,1.90
2022-08-07T23:38:36.691Z,1.95
2022-08-07T23:41:21.002Z,1.48
2022-08-07T23:44:12.757Z,2.00
2022-08-07T23:47:03.161Z,2.30
2022-08-07T23:50:06.959Z,1.83
2022-08-07T23:53:11.709Z,1.73
2022-08-07T23:55:55.877Z,1.60
2022-08-07T23:58:36.304Z,1.80
